createdAt,value
2022-09-02T00:00:33.323Z,49.70
2022-09-02T00:03:08.147Z,49.63
2022-09-02T00:05:41.963Z,49.56
2022-09-02T00:08:15.967Z,49.64
2022-09-02T00:10:50.204Z,49.87
2022-09-02T00:13:23.849Z,49.67
2022-09-02T00:15:57.830Z,49.76
2022-09-02T00:18:32.749Z,49.77
2022-09-02T00:21:06.948Z,49.81
2022-09-02T00:23:41.483Z,49.70
2022-09-02T00:26:15.861Z,49.82
2022-09-02T00:28:55.995Z,49.85
2022-09-02T00:31:30.158Z,49.95
2022-09-02T00:34:04.357Z,49.85
2022-09-02T00:36:38.122Z,49.89
2022-09-02T00:39:12.489Z,49.86
2022-09-02T00:41:46.931Z,49.92
2022-09-02T00:44:22.021Z,50.02
2022-09-02T00:46:55.645Z,50.13
2022-09-02T00:49:30.926Z,50.16
2022-09-02T00:52:09.570Z,50.35
2022-09-02T00:54:47.587Z,50.26
2022-09-02T00:57:24.051Z,50.42
2022-09-02T01:00:02.823Z,50.44
2022-09-02T01:02:37.816Z,50.44
2022-09-02T01:05:16.053Z,50.61
2022-09-02T01:07:51.675Z,50.68
2022-09-02T01:10:27.549Z,50.80
2022-09-02T01:13:05.440Z,50.78
2022-09-02T01:15:42.087Z,50.84
2022-09-02T01:18:20.703Z,50.98
2022-09-02T01:20:54.428Z,51.18
2022-09-02T01:23:28.473Z,51.27
2022-09-02T01:26:05.603Z,51.30
2022-09-02T01:28:39.324Z,51.40
2022-09-02T01:31:13.206Z,51.49
2022-09-02T01:33:47.151Z,51.54
2022-09-02T01:36:21.403Z,51.67
2022-09-02T01:38:54.480Z,51.74
2022-09-02T01:41:28.043Z,51.78
2022-09-02T01:44:02.484Z,51.92
2022-09-02T01:46:36.860Z,52.00
2022-09-02T01:49:10.442Z,52.21
2022-09-02T01:51:45.552Z,52.22
2022-09-02T01:54:19.027Z,52.35
2022-09-02T01:56:52.671Z,52.41
2022-09-02T01:59:26.205Z,52.50
2022-09-02T02:01:59.663Z,52.39
2022-09-02T02:04:33.782Z,52.62
2022-09-02T02:07:08.093Z,52.65
2022-09-02T02:09:42.271Z,52.70
2022-09-02T02:12:20.366Z,52.79
2022-09-02T02:14:55.024Z,52.82
2022-09-02T02:17:29.223Z,53.00
2022-09-02T02:20:02.836Z,53.08
2022-09-02T02:22:37.075Z,53.04
2022-09-02T02:25:11.799Z,53.17
2022-09-02T02:27:45.963Z,53.11
2022-09-02T02:30:20.127Z,53.19
2022-09-02T02:32:53.874Z,53.27
2022-09-02T02:35:27.406Z,53.19
2022-09-02T02:38:02.818Z,53.44
2022-09-02T02:40:37.855Z,53.54
2022-09-02T02:43:11.303Z,53.51
2022-09-02T02:45:44.905Z,53.73
2022-09-02T02:48:19.320Z,53.86
2022-09-02T02:50:53.623Z,53.88
2022-09-02T02:53:30.035Z,53.93
2022-09-02T02:56:03.803Z,54.00
2022-09-02T02:58:37.967Z,53.93
2022-09-02T03:01:13.472Z,53.92
2022-09-02T03:03:47.171Z,53.76
2022-09-02T03:06:24.838Z,53.94
2022-09-02T03:09:01.089Z,54.05
2022-09-02T03:11:34.847Z,54.09
2022-09-02T03:14:08.922Z,53.98
2022-09-02T03:16:42.921Z,54.19
2022-09-02T03:19:16.532Z,54.38
2022-09-02T03:21:50.406Z,54.35
2022-09-02T03:24:23.940Z,54.53
2022-09-02T03:26:57.420Z,54.60
2022-09-02T03:29:30.872Z,54.59
2022-09-02T03:32:05.081Z,54.74
2022-09-02T03:34:42.173Z,54.62
2022-09-02T03:37:15.935Z,54.65
2022-09-02T03:39:49.386Z,54.79
2022-09-02T03:42:22.785Z,54.66
2022-09-02T03:44:57.014Z,54.80
2022-09-02T03:47:31.148Z,54.94
2022-09-02T03:50:05.587Z,54.89
2022-09-02T03:52:39.047Z,54.85
2022-09-02T03:55:14.034Z,54.82
2022-09-02T03:57:47.529Z,54.65
2022-09-02T04:00:24.445Z,54.65
2022-09-02T04:02:58.515Z,54.60
2022-09-02T04:05:32.018Z,54.56
2022-09-02T04:08:06.909Z,54.51
2022-09-02T04:10:40.882Z,54.67
2022-09-02T04:13:14.421Z,54.42
2022-09-02T04:15:49.690Z,54.61
2022-09-02T04:18:25.540Z,54.55
2022-09-02T04:21:02.957Z,54.75
2022-09-02T04:23:37.079Z,54.69
2022-09-02T04:26:12.857Z,54.81
2022-09-02T04:28:46.810Z,54.81
2022-09-02T04:31:21.887Z,54.79
2022-09-02T04:33:57.259Z,54.81
2022-09-02T04:36:32.211Z,54.82
2022-09-02T04:39:09.942Z,55.02
2022-09-02T04:41:43.547Z,54.80
2022-09-02T04:44:18.511Z,54.81
2022-09-02T04:46:53.394Z,54.88
2022-09-02T04:49:31.929Z,55.15
2022-09-02T04:52:05.859Z,55.18
2022-09-02T04:54:39.546Z,55.04
2022-09-02T04:57:13.409Z,55.03
2022-09-02T04:59:47.079Z,54.97
2022-09-02T05:02:21.085Z,55.06
2022-09-02T05:04:55.383Z,54.97
2022-09-02T05:07:34.100Z,54.94
2022-09-02T05:10:08.776Z,55.03
2022-09-02T05:12:45.851Z,55.00
2022-09-02T05:15:19.418Z,54.97
2022-09-02T05:17:54.207Z,54.95
2022-09-02T05:20:28.820Z,54.84
2022-09-02T05:23:02.973Z,54.73
2022-09-02T05:25:37.953Z,54.71
2022-09-02T05:28:11.951Z,54.50
2022-09-02T05:30:46.104Z,54.41
2022-09-02T05:33:19.423Z,54.29
2022-09-02T05:35:54.773Z,54.35
2022-09-02T05:38:29.995Z,54.40
2022-09-02T05:41:08.673Z,54.30
2022-09-02T05:43:44.924Z,54.54
2022-09-02T05:46:22.534Z,54.78
2022-09-02T05:49:12.907Z,54.08
2022-09-02T05:51:53.416Z,53.65
2022-09-02T05:54:31.656Z,53.38
2022-09-02T05:57:09.420Z,53.43
2022-09-02T05:59:46.582Z,53.47
2022-09-02T06:02:22.224Z,53.39
2022-09-02T06:04:56.802Z,53.28
2022-09-02T06:07:30.619Z,53.20
2022-09-02T06:10:06.608Z,52.99
2022-09-02T06:12:42.637Z,52.89
2022-09-02T06:15:16.966Z,52.79
2022-09-02T06:17:50.209Z,52.52
2022-09-02T06:20:23.594Z,52.54
2022-09-02T06:22:57.821Z,52.44
2022-09-02T06:25:31.414Z,52.56
2022-09-02T06:28:07.438Z,52.34
2022-09-02T06:30:46.978Z,51.58
2022-09-02T06:33:21.936Z,50.43
2022-09-02T06:35:55.755Z,49.92
2022-09-02T06:38:29.028Z,50.29
2022-09-02T06:41:02.816Z,49.02
2022-09-02T06:43:43.814Z,47.59
2022-09-02T06:46:29.104Z,46.66
2022-09-02T06:49:04.646Z,44.48
2022-09-02T06:51:40.704Z,41.84
2022-09-02T06:54:16.706Z,39.23
2022-09-02T06:56:51.946Z,37.08
2022-09-02T06:59:28.145Z,35.03
2022-09-02T07:02:04.254Z,32.93
2022-09-02T07:04:57.622Z,31.23
2022-09-02T07:07:31.881Z,29.81
2022-09-02T07:10:15.337Z,27.90
2022-09-02T07:12:52.966Z,26.40
2022-09-02T07:15:27.065Z,26.00
2022-09-02T07:18:00.623Z,25.03
2022-09-02T07:20:46.175Z,24.11
2022-09-02T07:23:19.791Z,23.47
2022-09-02T07:25:55.810Z,22.73
2022-09-02T07:28:30.107Z,21.90
2022-09-02T07:31:04.527Z,21.79
2022-09-02T07:33:38.771Z,21.51
2022-09-02T07:36:14.273Z,21.33
2022-09-02T07:38:48.060Z,21.18
2022-09-02T07:41:22.093Z,21.66
2022-09-02T07:43:59.529Z,22.16
2022-09-02T07:46:35.094Z,22.65
2022-09-02T07:49:11.417Z,23.25
2022-09-02T07:51:49.668Z,24.04
2022-09-02T07:54:26.063Z,24.58
2022-09-02T07:57:00.120Z,25.20
2022-09-02T07:59:33.544Z,25.73
2022-09-02T08:02:08.327Z,25.98
2022-09-02T08:04:42.066Z,27.13
2022-09-02T08:07:17.234Z,26.86
2022-09-02T08:09:50.815Z,25.35
2022-09-02T08:12:24.539Z,24.49
2022-09-02T08:14:59.081Z,23.11
2022-09-02T08:17:32.953Z,22.40
2022-09-02T08:20:11.710Z,21.50
2022-09-02T08:22:50.817Z,21.37
2022-09-02T08:25:33.129Z,21.77
2022-09-02T08:28:07.293Z,22.25
2022-09-02T08:30:41.020Z,22.89
2022-09-02T08:33:14.253Z,23.47
2022-09-02T08:35:48.555Z,23.78
2022-09-02T08:38:22.768Z,24.25
2022-09-02T08:40:56.236Z,24.98
2022-09-02T08:43:37.846Z,24.34
2022-09-02T08:46:17.055Z,23.47
2022-09-02T08:48:54.578Z,23.65
2022-09-02T08:51:37.151Z,24.18
2022-09-02T08:54:18.010Z,24.99
2022-09-02T08:56:52.089Z,25.61
2022-09-02T08:59:28.457Z,25.91
2022-09-02T09:02:09.303Z,26.20
2022-09-02T09:05:07.656Z,26.86
2022-09-02T09:07:50.435Z,26.95
2022-09-02T09:10:28.746Z,27.08
2022-09-02T09:13:17.253Z,27.38
2022-09-02T09:15:57.975Z,27.85
2022-09-02T09:18:39.463Z,27.95
2022-09-02T09:21:15.003Z,28.27
2022-09-02T09:23:50.825Z,28.58
2022-09-02T09:26:29.233Z,28.76
2022-09-02T09:29:05.088Z,29.30
2022-09-02T09:31:41.160Z,29.66
2022-09-02T09:34:15.912Z,29.63
2022-09-02T09:36:56.374Z,29.50
2022-09-02T09:39:32.851Z,29.97
2022-09-02T09:42:16.185Z,30.20
2022-09-02T09:44:49.975Z,30.49
2022-09-02T09:47:26.235Z,30.53
2022-09-02T09:50:14.566Z,30.69
2022-09-02T09:52:48.177Z,30.46
2022-09-02T09:55:25.225Z,30.47
2022-09-02T09:58:11.724Z,29.34
2022-09-02T10:00:46.385Z,28.19
2022-09-02T10:03:32.928Z,28.01
2022-09-02T10:06:23.132Z,27.78
2022-09-02T10:08:59.259Z,27.84
2022-09-02T10:11:34.325Z,28.23
2022-09-02T10:14:10.426Z,28.62
2022-09-02T10:16:56.615Z,28.97
2022-09-02T10:19:39.446Z,28.76
2022-09-02T10:22:59.057Z,28.77
2022-09-02T10:25:42.080Z,28.92
2022-09-02T10:28:30.539Z,29.28
2022-09-02T10:31:13.762Z,29.06
2022-09-02T10:34:03.203Z,29.11
2022-09-02T10:36:47.301Z,29.45
2022-09-02T10:39:30.532Z,29.47
2022-09-02T10:42:16.568Z,29.20
2022-09-02T10:45:04.231Z,29.24
2022-09-02T10:47:40.689Z,29.18
2022-09-02T10:50:24.431Z,28.93
2022-09-02T10:53:17.889Z,29.21
2022-09-02T10:55:59.052Z,29.85
2022-09-02T10:58:46.326Z,29.67
2022-09-02T11:01:24.455Z,29.13
2022-09-02T11:04:07.209Z,29.54
2022-09-02T11:07:02.844Z,29.66
2022-09-02T11:09:42.227Z,28.69
2022-09-02T11:12:20.385Z,28.62
2022-09-02T11:15:05.621Z,28.58
2022-09-02T11:17:45.907Z,29.13
2022-09-02T11:20:30.923Z,29.19
2022-09-02T11:23:10.773Z,29.12
2022-09-02T11:25:49.554Z,28.61
2022-09-02T11:28:38.772Z,28.42
2022-09-02T11:31:19.326Z,29.21
2022-09-02T11:33:58.711Z,28.99
2022-09-02T11:36:33.458Z,28.33
2022-09-02T11:39:12.311Z,28.32
2022-09-02T11:42:00.805Z,28.38
2022-09-02T11:45:10.661Z,28.38
2022-09-02T11:48:14.310Z,28.20
2022-09-02T11:54:04.820Z,28.04
2022-09-02T11:56:43.291Z,28.16
2022-09-02T11:59:45.746Z,27.94
2022-09-02T12:02:37.413Z,27.87
2022-09-02T12:05:45.316Z,27.45
2022-09-02T12:08:56.391Z,27.98
2022-09-02T12:11:53.512Z,27.62
2022-09-02T12:15:05.544Z,28.39
2022-09-02T12:18:09.028Z,27.83
2022-09-02T12:21:16.588Z,26.86
2022-09-02T12:24:23.240Z,25.60
2022-09-02T12:27:26.301Z,24.32
2022-09-02T12:30:00.403Z,23.06
2022-09-02T12:33:08.276Z,22.59
2022-09-02T12:35:59.896Z,22.43
2022-09-02T12:38:39.185Z,22.80
2022-09-02T12:41:22.457Z,22.62
2022-09-02T12:44:30.135Z,22.10
2022-09-02T12:47:10.630Z,22.30
2022-09-02T12:49:56.495Z,22.13
2022-09-02T12:52:48.782Z,22.21
2022-09-02T12:55:29.479Z,22.42
2022-09-02T12:58:14.883Z,23.25
2022-09-02T13:01:02.958Z,23.61
2022-09-02T13:04:14.989Z,23.80
2022-09-02T13:07:13.836Z,24.62
2022-09-02T13:10:26.027Z,24.48
2022-09-02T13:13:24.743Z,23.93
2022-09-02T13:16:19.362Z,24.18
2022-09-02T13:19:29.593Z,24.73
2022-09-02T13:22:24.276Z,24.87
2022-09-02T13:25:33.448Z,25.61
2022-09-02T13:28:42.501Z,25.93
2022-09-02T13:31:23.125Z,26.50
2022-09-02T13:34:05.611Z,26.45
2022-09-02T13:36:44.750Z,26.44
2022-09-02T13:39:20.295Z,26.77
2022-09-02T13:41:53.835Z,26.84
2022-09-02T13:44:29.828Z,26.69
2022-09-02T13:47:06.818Z,27.08
2022-09-02T13:49:42.571Z,27.06
2022-09-02T13:52:23.998Z,27.34
2022-09-02T13:55:09.677Z,27.21
2022-09-02T13:57:49.145Z,27.24
2022-09-02T14:00:33.946Z,27.27
2022-09-02T14:03:10.075Z,27.30
2022-09-02T14:05:47.627Z,27.47
2022-09-02T14:08:24.478Z,27.57
2022-09-02T14:10:58.725Z,27.35
2022-09-02T14:13:32.127Z,27.56
2022-09-02T14:16:28.031Z,27.45
2022-09-02T14:19:14.993Z,27.83
2022-09-02T14:21:54.743Z,28.21
2022-09-02T14:24:30.953Z,28.37
2022-09-02T14:27:04.598Z,28.59
2022-09-02T14:29:45.332Z,28.73
2022-09-02T14:32:23.478Z,28.92
2022-09-02T14:35:24.139Z,28.85
2022-09-02T14:37:59.907Z,28.83
2022-09-02T14:40:39.254Z,29.03
2022-09-02T14:43:17.868Z,29.23
2022-09-02T14:45:52.287Z,29.52
2022-09-02T14:48:28.454Z,29.43
2022-09-02T14:51:07.416Z,29.36
2022-09-02T14:53:45.333Z,29.49
2022-09-02T14:56:39.529Z,29.82
2022-09-02T14:59:13.094Z,29.68
2022-09-02T15:01:48.773Z,29.79
2022-09-02T15:04:22.431Z,30.13
2022-09-02T15:06:57.106Z,30.52
2022-09-02T15:09:30.139Z,30.44
2022-09-02T15:12:03.883Z,30.88
2022-09-02T15:14:37.570Z,30.94
2022-09-02T15:17:15.509Z,30.75
2022-09-02T15:19:48.745Z,30.97
2022-09-02T15:22:23.101Z,31.21
2022-09-02T15:24:58.608Z,31.49
2022-09-02T15:27:32.215Z,31.46
2022-09-02T15:30:06.508Z,31.46
2022-09-02T15:32:40.463Z,31.13
2022-09-02T15:35:14.513Z,31.15
2022-09-02T15:37:50.871Z,31.06
2022-09-02T15:40:25.052Z,31.26
2022-09-02T15:42:58.755Z,31.05
2022-09-02T15:45:31.936Z,31.20
2022-09-02T15:48:07.391Z,31.48
2022-09-02T15:50:41.665Z,31.66
2022-09-02T15:53:16.067Z,31.82
2022-09-02T15:55:49.995Z,31.78
2022-09-02T15:58:23.524Z,31.66
2022-09-02T16:00:58.622Z,31.74
2022-09-02T16:03:32.727Z,31.94
2022-09-02T16:06:08.824Z,32.02
2022-09-02T16:08:42.178Z,32.05
2022-09-02T16:11:15.563Z,31.86
2022-09-02T16:13:49.328Z,32.03
2022-09-02T16:16:23.427Z,32.20
2022-09-02T16:18:57.501Z,32.46
2022-09-02T16:21:30.737Z,32.67
2022-09-02T16:24:04.570Z,32.89
2022-09-02T16:26:39.574Z,32.98
2022-09-02T16:29:15.230Z,33.20
2022-09-02T16:32:02.362Z,33.43
2022-09-02T16:34:45.804Z,33.69
2022-09-02T16:37:19.286Z,33.82
2022-09-02T16:39:53.843Z,33.83
2022-09-02T16:42:27.682Z,33.93
2022-09-02T16:45:01.740Z,33.60
2022-09-02T16:47:35.271Z,33.80
2022-09-02T16:50:12.707Z,34.06
2022-09-02T16:52:46.297Z,34.10
2022-09-02T16:55:19.621Z,34.06
2022-09-02T16:57:53.178Z,34.14
2022-09-02T17:00:26.383Z,34.13
2022-09-02T17:02:59.991Z,34.26
2022-09-02T17:05:33.410Z,34.32
2022-09-02T17:08:07.623Z,34.48
2022-09-02T17:10:41.171Z,34.62
2022-09-02T17:13:15.008Z,34.75
2022-09-02T17:15:48.369Z,34.74
2022-09-02T17:18:21.678Z,34.64
2022-09-02T17:21:11.701Z,34.65
2022-09-02T17:23:45.124Z,34.71
2022-09-02T17:26:18.853Z,34.65
2022-09-02T17:28:55.000Z,34.81
2022-09-02T17:31:31.090Z,34.80
2022-09-02T17:34:05.814Z,35.11
2022-09-02T17:36:44.629Z,35.23
2022-09-02T17:39:22.363Z,35.30
2022-09-02T17:41:59.033Z,35.36
2022-09-02T17:44:35.263Z,35.55
2022-09-02T17:47:10.293Z,35.67
2022-09-02T17:49:45.015Z,35.79
2022-09-02T17:52:20.521Z,35.91
2022-09-02T17:54:55.557Z,36.07
2022-09-02T17:57:49.217Z,36.58
2022-09-02T18:00:27.244Z,36.98
2022-09-02T18:03:25.728Z,37.30
2022-09-02T18:06:02.277Z,37.37
2022-09-02T18:08:46.860Z,37.63
2022-09-02T18:11:22.480Z,37.83
2022-09-02T18:14:07.769Z,38.14
2022-09-02T18:16:52.279Z,38.38
2022-09-02T18:19:39.466Z,38.66
2022-09-02T18:22:35.954Z,38.70
2022-09-02T18:25:24.268Z,38.95
2022-09-02T18:28:07.761Z,39.11
2022-09-02T18:30:49.516Z,39.14
2022-09-02T18:33:40.174Z,39.30
2022-09-02T18:36:25.803Z,39.58
2022-09-02T18:39:17.413Z,39.74
2022-09-02T18:42:05.474Z,39.89
2022-09-02T18:44:51.103Z,39.96
2022-09-02T18:47:32.727Z,40.18
2022-09-02T18:50:11.380Z,40.57
2022-09-02T18:52:54.127Z,40.86
2022-09-02T18:55:35.714Z,41.06
2022-09-02T18:58:15.156Z,41.57
2022-09-02T19:00:58.041Z,41.82
2022-09-02T19:03:37.097Z,42.01
2022-09-02T19:06:18.854Z,42.28
2022-09-02T19:09:03.316Z,42.49
2022-09-02T19:11:38.781Z,42.52
2022-09-02T19:14:26.778Z,42.44
2022-09-02T19:17:01.309Z,42.89
2022-09-02T19:19:35.723Z,43.02
2022-09-02T19:22:11.951Z,42.98
2022-09-02T19:24:49.147Z,43.14
2022-09-02T19:27:25.824Z,42.96
2022-09-02T19:30:05.823Z,43.46
2022-09-02T19:32:41.522Z,43.75
2022-09-02T19:35:18.678Z,43.88
2022-09-02T19:37:54.790Z,43.63
2022-09-02T19:40:31.874Z,43.88
2022-09-02T19:43:07.932Z,43.59
2022-09-02T19:45:41.441Z,43.44
2022-09-02T19:48:15.791Z,43.08
2022-09-02T19:50:50.181Z,42.76
2022-09-02T19:53:28.235Z,42.80
2022-09-02T19:56:02.095Z,42.82
2022-09-02T19:58:35.293Z,42.84
2022-09-02T20:01:10.218Z,42.94
2022-09-02T20:03:43.547Z,42.97
2022-09-02T20:06:17.002Z,42.87
2022-09-02T20:08:50.283Z,43.10
2022-09-02T20:11:23.880Z,43.02
2022-09-02T20:13:57.562Z,43.11
2022-09-02T20:16:31.374Z,43.23
2022-09-02T20:19:04.982Z,43.19
2022-09-02T20:21:43.661Z,43.31
2022-09-02T20:24:17.205Z,43.43
2022-09-02T20:26:59.373Z,43.69
2022-09-02T20:29:48.150Z,43.73
2022-09-02T20:32:33.649Z,43.60
2022-09-02T20:35:16.814Z,43.63
2022-09-02T20:37:58.471Z,43.76
2022-09-02T20:40:38.737Z,43.76
2022-09-02T20:43:28.711Z,43.70
2022-09-02T20:46:10.457Z,43.90
2022-09-02T20:48:55.411Z,43.74
2022-09-02T20:51:36.461Z,43.87
2022-09-02T20:54:20.987Z,43.97
2022-09-02T20:57:04.375Z,44.05
2022-09-02T20:59:55.001Z,43.95
2022-09-02T21:02:34.441Z,44.17
2022-09-02T21:05:22.647Z,44.28
2022-09-02T21:08:03.387Z,44.24
2022-09-02T21:10:42.518Z,44.30
2022-09-02T21:13:22.473Z,44.31
2022-09-02T21:16:00.232Z,44.49
2022-09-02T21:18:40.495Z,44.71
2022-09-02T21:21:25.156Z,44.66
2022-09-02T21:24:04.924Z,44.78
2022-09-02T21:26:49.163Z,44.76
2022-09-02T21:29:29.000Z,44.86
2022-09-02T21:32:06.751Z,44.91
2022-09-02T21:34:48.373Z,44.92
2022-09-02T21:37:22.109Z,45.20
2022-09-02T21:39:58.282Z,45.11
2022-09-02T21:42:42.453Z,45.35
2022-09-02T21:45:24.941Z,45.28
2022-09-02T21:48:17.491Z,45.44
2022-09-02T21:50:58.986Z,45.50
2022-09-02T21:53:45.511Z,45.61
2022-09-02T21:56:34.303Z,45.73
2022-09-02T21:59:33.577Z,45.81
2022-09-02T22:02:12.414Z,45.91
2022-09-02T22:04:59.288Z,45.99
2022-09-02T22:07:39.697Z,46.05
2022-09-02T22:10:18.705Z,46.09
2022-09-02T22:12:54.735Z,46.14
2022-09-02T22:15:35.484Z,46.39
2022-09-02T22:18:21.751Z,46.49
2022-09-02T22:21:01.728Z,46.54
2022-09-02T22:23:36.576Z,46.91
2022-09-02T22:26:21.963Z,46.95
2022-09-02T22:29:01.393Z,47.02
2022-09-02T22:31:38.006Z,47.10
2022-09-02T22:34:14.098Z,47.02
2022-09-02T22:37:00.811Z,47.17
2022-09-02T22:39:39.226Z,47.14
2022-09-02T22:42:22.026Z,47.16
2022-09-02T22:45:21.810Z,47.07
2022-09-02T22:48:19.954Z,47.16
2022-09-02T22:51:19.013Z,47.00
2022-09-02T22:53:53.126Z,46.86
2022-09-02T22:56:39.203Z,46.78
2022-09-02T22:59:24.735Z,46.74
2022-09-02T23:02:09.829Z,46.68
2022-09-02T23:05:04.403Z,46.95
2022-09-02T23:07:38.853Z,46.84
2022-09-02T23:10:21.379Z,46.79
2022-09-02T23:13:03.256Z,46.86
2022-09-02T23:15:43.314Z,46.73
2022-09-02T23:18:30.212Z,46.73
2022-09-02T23:21:11.489Z,46.87
2022-09-02T23:23:55.059Z,46.97
2022-09-02T23:26:40.260Z,46.94
2022-09-02T23:29:26.617Z,46.62
2022-09-02T23:32:24.180Z,46.50
2022-09-02T23:35:21.850Z,46.49
2022-09-02T23:38:10.375Z,46.57
2022-09-02T23:40:43.248Z,46.83
2022-09-02T23:43:18.687Z,47.07
2022-09-02T23:45:53.891Z,47.20
2022-09-02T23:48:44.233Z,47.18
2022-09-02T23:51:25.319Z,47.22
2022-09-02T23:54:12.419Z,47.37
2022-09-02T23:56:59.325Z,47.55
2022-09-02T23:59:57.058Z,47.67
